WXM80 ListenWXM80 Stop

You find our weather info also at:

UK Metoffice

WeatherCloud

Weather Underground

Northeastern Weather Network

AWEKAS

Citizen Weather Observer Program (CWOP)

HAMweather, WeatherForYou, PWS Weather


Weather Underground History page Text

Daily Summary for February 10, 2018 Units:  Both    English   Metric
« Previous Day
Next Day »
Daily Weekly Monthly Yearly Custom
  High: Low: Average:
Temperature: 47.9 °F /  8.8 °C 35.8 °F /  2.1 °C 41.1 °F /  5.1 °C
Dew Point: 45.5 °F /  7.5 °C 31.7 °F /  -0.2 °C 38.3 °F /  3.5 °C
Humidity: 97 % 76 % 90 %
Wind Speed: 4.4 mph /  7.1 km/h - 0.6 mph /  1 km/h
Wind Gust: 9.2 mph /  14.8 km/h - -
Wind:- - South
Pressure: 30.16 in /  1021.2 hPa 29.76 in /  1007.7 hPa -
Precipitation: 0.13 in /  3.3 mm    
Historical Graphs
 
 
Tabular Data for February 10, 2018
Time Temperature Dew Point Pressure Wind Wind Speed Wind Gust Humidity Rainfall Rate (Hourly)
00:01 35.9 °F /  2.2 °C 31.8 °F /  -0.1 °C 30.16 in /  1021.2 hPa Calm   1.2 mph /  1.9 km/h 85 % 0.00 in /  0 mm
00:06 35.8 °F /  2.1 °C 31.7 °F /  -0.2 °C 30.16 in /  1021.2 hPa Calm     85 % 0.00 in /  0 mm
00:11 35.9 °F /  2.2 °C 31.8 °F /  -0.1 °C 30.15 in /  1020.9 hPa SW 0.2 mph /  0.3 km/h 1.2 mph /  1.9 km/h 85 % 0.00 in /  0 mm
00:16 35.9 °F /  2.2 °C 32.1 °F /  0.1 °C 30.15 in /  1020.9 hPa Calm     86 % 0.00 in /  0 mm
00:21 35.9 °F /  2.2 °C 32.1 °F /  0.1 °C 30.14 in /  1020.5 hPa SSE 1.6 mph /  2.6 km/h 4.6 mph /  7.4 km/h 86 % 0.00 in /  0 mm
00:26 36.0 °F /  2.2 °C 32.5 °F /  0.3 °C 30.14 in /  1020.5 hPa Calm   1.2 mph /  1.9 km/h 87 % 0.00 in /  0 mm
00:31 36.2 °F /  2.3 °C 32.7 °F /  0.4 °C 30.14 in /  1020.5 hPa SSE 0.1 mph /  0.2 km/h 1.2 mph /  1.9 km/h 87 % 0.00 in /  0 mm
00:36 36.2 °F /  2.3 °C 32.7 °F /  0.4 °C 30.14 in /  1020.5 hPa Calm     87 % 0.00 in /  0 mm
00:41 36.3 °F /  2.4 °C 32.8 °F /  0.4 °C 30.14 in /  1020.5 hPa SSE 0.1 mph /  0.2 km/h 2.3 mph /  3.7 km/h 87 % 0.00 in /  0 mm
00:46 36.3 °F /  2.4 °C 32.8 °F /  0.4 °C 30.14 in /  1020.5 hPa SSE 0.6 mph /  1 km/h 3.5 mph /  5.6 km/h 87 % 0.00 in /  0 mm
00:51 36.4 °F /  2.4 °C 32.9 °F /  0.5 °C 30.13 in /  1020.2 hPa South 0.7 mph /  1.1 km/h 3.5 mph /  5.6 km/h 87 % 0.00 in /  0 mm
00:56 36.5 °F /  2.5 °C 33.0 °F /  0.6 °C 30.13 in /  1020.2 hPa South 0.1 mph /  0.2 km/h 2.3 mph /  3.7 km/h 87 % 0.00 in /  0 mm
01:01 36.6 °F /  2.6 °C 33.1 °F /  0.6 °C 30.13 in /  1020.2 hPa Calm   3.5 mph /  5.6 km/h 87 % 0.00 in /  0 mm
01:06 36.6 °F /  2.6 °C 33.1 °F /  0.6 °C 30.13 in /  1020.2 hPa SSE 1.0 mph /  1.6 km/h 4.0 mph /  6.4 km/h 87 % 0.00 in /  0 mm
01:11 36.7 °F /  2.6 °C 33.2 °F /  0.7 °C 30.13 in /  1020.2 hPa SSE 0.6 mph /  1 km/h 2.3 mph /  3.7 km/h 87 % 0.00 in /  0 mm
01:16 36.7 °F /  2.6 °C 33.2 °F /  0.7 °C 30.12 in /  1019.9 hPa South 0.2 mph /  0.3 km/h 2.0 mph /  3.2 km/h 87 % 0.00 in /  0 mm
01:21 36.8 °F /  2.7 °C 33.3 °F /  0.7 °C 30.12 in /  1019.9 hPa South 0.5 mph /  0.8 km/h 3.5 mph /  5.6 km/h 87 % 0.00 in /  0 mm
01:27 36.9 °F /  2.7 °C 33.4 °F /  0.8 °C 30.12 in /  1019.9 hPa Calm   1.2 mph /  1.9 km/h 87 % 0.00 in /  0 mm
01:32 37.1 °F /  2.8 °C 33.6 °F /  0.9 °C 30.12 in /  1019.9 hPa South 0.3 mph /  0.5 km/h 3.0 mph /  4.8 km/h 87 % 0.00 in /  0 mm
01:37 37.3 °F /  2.9 °C 33.8 °F /  1 °C 30.12 in /  1019.9 hPa South 0.1 mph /  0.2 km/h 2.0 mph /  3.2 km/h 87 % 0.00 in /  0 mm
01:42 37.4 °F /  3 °C 33.9 °F /  1.1 °C 30.12 in /  1019.9 hPa South 0.1 mph /  0.2 km/h 2.3 mph /  3.7 km/h 87 % 0.00 in /  0 mm
01:47 37.5 °F /  3.1 °C 34.0 °F /  1.1 °C 30.12 in /  1019.9 hPa South 2.4 mph /  3.9 km/h 4.0 mph /  6.4 km/h 87 % 0.00 in /  0 mm
01:52 37.8 °F /  3.2 °C 34.3 °F /  1.3 °C 30.11 in /  1019.5 hPa SSE 0.3 mph /  0.5 km/h 2.0 mph /  3.2 km/h 87 % 0.00 in /  0 mm
01:57 38.0 °F /  3.3 °C 34.5 °F /  1.4 °C 30.11 in /  1019.5 hPa South 0.4 mph /  0.6 km/h 2.3 mph /  3.7 km/h 87 % 0.00 in /  0 mm
02:02 38.0 °F /  3.3 °C 34.2 °F /  1.2 °C 30.11 in /  1019.5 hPa SSE 1.9 mph /  3.1 km/h 3.5 mph /  5.6 km/h 86 % 0.00 in /  0 mm
02:07 38.2 °F /  3.4 °C 34.4 °F /  1.3 °C 30.10 in /  1019.2 hPa SSW 3.0 mph /  4.8 km/h 6.9 mph /  11.1 km/h 86 % 0.00 in /  0 mm
02:12 38.3 °F /  3.5 °C 34.5 °F /  1.4 °C 30.10 in /  1019.2 hPa Calm   2.3 mph /  3.7 km/h 86 % 0.00 in /  0 mm
02:17 38.5 °F /  3.6 °C 34.7 °F /  1.5 °C 30.10 in /  1019.2 hPa SSW 1.4 mph /  2.3 km/h 3.5 mph /  5.6 km/h 86 % 0.00 in /  0 mm
02:22 38.7 °F /  3.7 °C 34.9 °F /  1.6 °C 30.10 in /  1019.2 hPa South 1.3 mph /  2.1 km/h 3.5 mph /  5.6 km/h 86 % 0.00 in /  0 mm
02:27 38.8 °F /  3.8 °C 35.0 °F /  1.7 °C 30.09 in /  1018.8 hPa South 1.5 mph /  2.4 km/h 3.5 mph /  5.6 km/h 86 % 0.00 in /  0 mm
02:32 38.9 °F /  3.8 °C 35.1 °F /  1.7 °C 30.09 in /  1018.8 hPa SSW 2.3 mph /  3.7 km/h 3.5 mph /  5.6 km/h 86 % 0.00 in /  0 mm
02:37 39.0 °F /  3.9 °C 35.2 °F /  1.8 °C 30.09 in /  1018.8 hPa South 2.5 mph /  4 km/h 4.0 mph /  6.4 km/h 86 % 0.00 in /  0 mm
02:42 39.1 °F /  3.9 °C 35.3 °F /  1.8 °C 30.09 in /  1018.8 hPa South 0.6 mph /  1 km/h 2.3 mph /  3.7 km/h 86 % 0.00 in /  0 mm
02:48 39.3 °F /  4.1 °C 35.5 °F /  1.9 °C 30.08 in /  1018.5 hPa SSE 1.3 mph /  2.1 km/h 4.6 mph /  7.4 km/h 86 % 0.00 in /  0 mm
02:53 39.4 °F /  4.1 °C 35.6 °F /  2 °C 30.08 in /  1018.5 hPa South 0.3 mph /  0.5 km/h 3.5 mph /  5.6 km/h 86 % 0.00 in /  0 mm
02:58 39.5 °F /  4.2 °C 35.4 °F /  1.9 °C 30.08 in /  1018.5 hPa South 3.1 mph /  5 km/h 5.0 mph /  8 km/h 85 % 0.00 in /  0 mm
03:03 39.5 °F /  4.2 °C 35.4 °F /  1.9 °C 30.08 in /  1018.5 hPa South 3.4 mph /  5.5 km/h 5.8 mph /  9.3 km/h 85 % 0.00 in /  0 mm
03:08 39.5 °F /  4.2 °C 35.4 °F /  1.9 °C 30.08 in /  1018.5 hPa SSW 2.0 mph /  3.2 km/h 3.5 mph /  5.6 km/h 85 % 0.00 in /  0 mm
03:13 39.5 °F /  4.2 °C 35.4 °F /  1.9 °C 30.07 in /  1018.2 hPa South 3.1 mph /  5 km/h 4.6 mph /  7.4 km/h 85 % 0.00 in /  0 mm
03:18 39.6 °F /  4.2 °C 35.5 °F /  1.9 °C 30.08 in /  1018.5 hPa Calm     85 % 0.00 in /  0 mm
03:23 39.6 °F /  4.2 °C 35.5 °F /  1.9 °C 30.08 in /  1018.5 hPa SW 2.9 mph /  4.7 km/h 3.5 mph /  5.6 km/h 85 % 0.00 in /  0 mm
03:28 39.6 °F /  4.2 °C 35.8 °F /  2.1 °C 30.08 in /  1018.5 hPa WSW 0.4 mph /  0.6 km/h 2.0 mph /  3.2 km/h 86 % 0.00 in /  0 mm
03:30 39.7 °F /  4.3 °C 35.9 °F /  2.2 °C 30.08 in /  1018.5 hPa WSW 0.8 mph /  1.3 km/h 3.5 mph /  5.6 km/h 86 % 0.00 in /  0 mm
03:35 39.7 °F /  4.3 °C 35.9 °F /  2.2 °C 30.08 in /  1018.5 hPa Calm     86 % 0.00 in /  0 mm
03:40 39.7 °F /  4.3 °C 35.9 °F /  2.2 °C 30.08 in /  1018.5 hPa WSW 0.5 mph /  0.8 km/h 2.3 mph /  3.7 km/h 86 % 0.00 in /  0 mm
03:45 39.8 °F /  4.3 °C 36.0 °F /  2.2 °C 30.07 in /  1018.2 hPa SSW 1.2 mph /  1.9 km/h 2.3 mph /  3.7 km/h 86 % 0.00 in /  0 mm
03:50 39.8 °F /  4.3 °C 36.0 °F /  2.2 °C 30.07 in /  1018.2 hPa SSW 0.4 mph /  0.6 km/h 1.2 mph /  1.9 km/h 86 % 0.00 in /  0 mm
03:55 39.8 °F /  4.3 °C 36.0 °F /  2.2 °C 30.07 in /  1018.2 hPa SSW 0.3 mph /  0.5 km/h 1.2 mph /  1.9 km/h 86 % 0.00 in /  0 mm
04:00 39.8 °F /  4.3 °C 36.0 °F /  2.2 °C 30.07 in /  1018.2 hPa Calm     86 % 0.00 in /  0 mm
04:05 39.8 °F /  4.3 °C 36.0 °F /  2.2 °C 30.07 in /  1018.2 hPa Calm     86 % 0.00 in /  0 mm
04:10 39.8 °F /  4.3 °C 36.0 °F /  2.2 °C 30.07 in /  1018.2 hPa SSW 0.2 mph /  0.3 km/h 1.0 mph /  1.6 km/h 86 % 0.00 in /  0 mm
04:15 39.8 °F /  4.3 °C 36.0 °F /  2.2 °C 30.07 in /  1018.2 hPa Calm     86 % 0.00 in /  0 mm
04:21 39.7 °F /  4.3 °C 35.9 °F /  2.2 °C 30.07 in /  1018.2 hPa SSW 0.3 mph /  0.5 km/h   86 % 0.00 in /  0 mm
04:26 39.7 °F /  4.3 °C 35.9 °F /  2.2 °C 30.07 in /  1018.2 hPa Calm   1.0 mph /  1.6 km/h 86 % 0.00 in /  0 mm
04:31 39.7 °F /  4.3 °C 35.9 °F /  2.2 °C 30.07 in /  1018.2 hPa Calm   2.0 mph /  3.2 km/h 86 % 0.00 in /  0 mm
04:36 39.7 °F /  4.3 °C 35.9 °F /  2.2 °C 30.07 in /  1018.2 hPa Calm     86 % 0.00 in /  0 mm
04:41 39.7 °F /  4.3 °C 35.9 °F /  2.2 °C 30.07 in /  1018.2 hPa WSW 1.6 mph /  2.6 km/h 3.5 mph /  5.6 km/h 86 % 0.00 in /  0 mm
04:46 39.6 °F /  4.2 °C 35.8 °F /  2.1 °C 30.07 in /  1018.2 hPa Calm     86 % 0.00 in /  0 mm
04:51 39.5 °F /  4.2 °C 35.7 °F /  2.1 °C 30.07 in /  1018.2 hPa Calm     86 % 0.00 in /  0 mm
04:56 39.5 °F /  4.2 °C 35.7 °F /  2.1 °C 30.07 in /  1018.2 hPa Calm     86 % 0.00 in /  0 mm
05:01 39.5 °F /  4.2 °C 35.7 °F /  2.1 °C 30.07 in /  1018.2 hPa Calm     86 % 0.00 in /  0 mm
05:06 39.3 °F /  4.1 °C 35.5 °F /  1.9 °C 30.07 in /  1018.2 hPa Calm     86 % 0.00 in /  0 mm
05:11 39.3 °F /  4.1 °C 35.5 °F /  1.9 °C 30.07 in /  1018.2 hPa Calm     86 % 0.00 in /  0 mm
05:16 39.2 °F /  4 °C 35.4 °F /  1.9 °C 30.07 in /  1018.2 hPa Calm     86 % 0.00 in /  0 mm
05:21 39.0 °F /  3.9 °C 35.2 °F /  1.8 °C 30.07 in /  1018.2 hPa Calm     86 % 0.00 in /  0 mm
05:26 38.9 °F /  3.8 °C 35.1 °F /  1.7 °C 30.07 in /  1018.2 hPa Calm     86 % 0.00 in /  0 mm
05:31 38.8 °F /  3.8 °C 35.0 °F /  1.7 °C 30.07 in /  1018.2 hPa Calm     86 % 0.00 in /  0 mm
05:36 38.7 °F /  3.7 °C 34.9 °F /  1.6 °C 30.07 in /  1018.2 hPa Calm     86 % 0.00 in /  0 mm
05:41 38.5 °F /  3.6 °C 34.7 °F /  1.5 °C 30.07 in /  1018.2 hPa Calm     86 % 0.00 in /  0 mm
05:46 38.3 °F /  3.5 °C 34.5 °F /  1.4 °C 30.07 in /  1018.2 hPa Calm     86 % 0.00 in /  0 mm
05:51 38.2 °F /  3.4 °C 34.4 °F /  1.3 °C 30.07 in /  1018.2 hPa Calm   1.2 mph /  1.9 km/h 86 % 0.00 in /  0 mm
05:56 37.9 °F /  3.3 °C 34.1 °F /  1.2 °C 30.07 in /  1018.2 hPa West 0.4 mph /  0.6 km/h 2.0 mph /  3.2 km/h 86 % 0.00 in /  0 mm
06:01 37.8 °F /  3.2 °C 34.0 °F /  1.1 °C 30.07 in /  1018.2 hPa Calm     86 % 0.00 in /  0 mm
06:06 37.6 °F /  3.1 °C 33.8 °F /  1 °C 30.07 in /  1018.2 hPa Calm     86 % 0.00 in /  0 mm
06:11 37.4 °F /  3 °C 33.9 °F /  1.1 °C 30.06 in /  1017.8 hPa Calm     87 % 0.00 in /  0 mm
06:16 37.2 °F /  2.9 °C 33.7 °F /  0.9 °C 30.07 in /  1018.2 hPa Calm     87 % 0.00 in /  0 mm
06:22 37.1 °F /  2.8 °C 33.6 °F /  0.9 °C 30.06 in /  1017.8 hPa Calm     87 % 0.00 in /  0 mm
06:27 36.9 °F /  2.7 °C 33.4 °F /  0.8 °C 30.06 in /  1017.8 hPa Calm     87 % 0.00 in /  0 mm
06:32 36.7 °F /  2.6 °C 33.2 °F /  0.7 °C 30.06 in /  1017.8 hPa Calm     87 % 0.00 in /  0 mm
06:37 36.6 °F /  2.6 °C 33.1 °F /  0.6 °C 30.06 in /  1017.8 hPa Calm     87 % 0.00 in /  0 mm
06:42 36.4 °F /  2.4 °C 32.9 °F /  0.5 °C 30.06 in /  1017.8 hPa Calm     87 % 0.00 in /  0 mm
06:47 36.3 °F /  2.4 °C 32.8 °F /  0.4 °C 30.06 in /  1017.8 hPa Calm     87 % 0.00 in /  0 mm
06:52 36.2 °F /  2.3 °C 33.0 °F /  0.6 °C 30.06 in /  1017.8 hPa Calm     88 % 0.00 in /  0 mm
06:57 36.1 °F /  2.3 °C 32.9 °F /  0.5 °C 30.06 in /  1017.8 hPa Calm     88 % 0.00 in /  0 mm
07:02 36.0 °F /  2.2 °C 33.1 °F /  0.6 °C 30.06 in /  1017.8 hPa Calm     89 % 0.00 in /  0 mm
07:03 35.9 °F /  2.2 °C 33.0 °F /  0.6 °C 30.06 in /  1017.8 hPa Calm     89 % 0.00 in /  0 mm
07:08 35.9 °F /  2.2 °C 33.0 °F /  0.6 °C 30.06 in /  1017.8 hPa Calm     89 % 0.00 in /  0 mm
07:13 35.8 °F /  2.1 °C 32.9 °F /  0.5 °C 30.06 in /  1017.8 hPa Calm     89 % 0.00 in /  0 mm
07:18 35.9 °F /  2.2 °C 33.3 °F /  0.7 °C 30.06 in /  1017.8 hPa Calm     90 % 0.00 in /  0 mm
07:23 35.9 °F /  2.2 °C 33.3 °F /  0.7 °C 30.06 in /  1017.8 hPa Calm     90 % 0.00 in /  0 mm
07:28 35.9 °F /  2.2 °C 33.3 °F /  0.7 °C 30.06 in /  1017.8 hPa Calm     90 % 0.00 in /  0 mm
07:34 36.0 °F /  2.2 °C 33.4 °F /  0.8 °C 30.06 in /  1017.8 hPa Calm     90 % 0.00 in /  0 mm
07:39 36.1 °F /  2.3 °C 33.7 °F /  0.9 °C 30.06 in /  1017.8 hPa Calm     91 % 0.00 in /  0 mm
07:44 36.2 °F /  2.3 °C 33.8 °F /  1 °C 30.06 in /  1017.8 hPa Calm     91 % 0.00 in /  0 mm
07:49 36.3 °F /  2.4 °C 33.9 °F /  1.1 °C 30.06 in /  1017.8 hPa Calm     91 % 0.00 in /  0 mm
07:54 36.4 °F /  2.4 °C 34.3 °F /  1.3 °C 30.06 in /  1017.8 hPa Calm     92 % 0.00 in /  0 mm
07:59 36.5 °F /  2.5 °C 34.4 °F /  1.3 °C 30.06 in /  1017.8 hPa Calm     92 % 0.00 in /  0 mm
08:04 36.6 °F /  2.6 °C 34.5 °F /  1.4 °C 30.06 in /  1017.8 hPa Calm     92 % 0.00 in /  0 mm
08:09 36.8 °F /  2.7 °C 34.7 °F /  1.5 °C 30.06 in /  1017.8 hPa Calm     92 % 0.00 in /  0 mm
08:14 37.0 °F /  2.8 °C 34.9 °F /  1.6 °C 30.06 in /  1017.8 hPa Calm     92 % 0.00 in /  0 mm
08:19 37.4 °F /  3 °C 35.6 °F /  2 °C 30.06 in /  1017.8 hPa Calm     93 % 0.00 in /  0 mm
08:24 37.7 °F /  3.2 °C 35.9 °F /  2.2 °C 30.06 in /  1017.8 hPa Calm     93 % 0.00 in /  0 mm
08:29 38.0 °F /  3.3 °C 36.2 °F /  2.3 °C 30.05 in /  1017.5 hPa Calm     93 % 0.00 in /  0 mm
08:34 38.3 °F /  3.5 °C 36.5 °F /  2.5 °C 30.05 in /  1017.5 hPa Calm     93 % 0.00 in /  0 mm
08:39 38.6 °F /  3.7 °C 36.8 °F /  2.7 °C 30.05 in /  1017.5 hPa Calm     93 % 0.00 in /  0 mm
08:44 39.1 °F /  3.9 °C 37.2 °F /  2.9 °C 30.05 in /  1017.5 hPa Calm     93 % 0.00 in /  0 mm
08:49 39.7 °F /  4.3 °C 37.8 °F /  3.2 °C 30.05 in /  1017.5 hPa Calm     93 % 0.00 in /  0 mm
08:54 40.6 °F /  4.8 °C 38.7 °F /  3.7 °C 30.04 in /  1017.2 hPa Calm     93 % 0.00 in /  0 mm
08:59 41.3 °F /  5.2 °C 39.4 °F /  4.1 °C 30.04 in /  1017.2 hPa Calm     93 % 0.00 in /  0 mm
09:04 42.0 °F /  5.6 °C 40.1 °F /  4.5 °C 30.04 in /  1017.2 hPa SW 3.4 mph /  5.5 km/h 5.8 mph /  9.3 km/h 93 % 0.00 in /  0 mm
09:10 42.9 °F /  6.1 °C 41.0 °F /  5 °C 30.04 in /  1017.2 hPa SSW 2.2 mph /  3.5 km/h 5.8 mph /  9.3 km/h 93 % 0.00 in /  0 mm
09:15 43.8 °F /  6.6 °C 42.2 °F /  5.7 °C 30.04 in /  1017.2 hPa SW 3.1 mph /  5 km/h 6.9 mph /  11.1 km/h 94 % 0.00 in /  0 mm
09:20 44.9 °F /  7.2 °C 43.3 °F /  6.3 °C 30.04 in /  1017.2 hPa SSW 2.6 mph /  4.2 km/h 9.2 mph /  14.8 km/h 94 % 0.00 in /  0 mm
09:25 45.8 °F /  7.7 °C 43.9 °F /  6.6 °C 30.04 in /  1017.2 hPa SW 0.9 mph /  1.4 km/h 6.9 mph /  11.1 km/h 93 % 0.00 in /  0 mm
09:30 46.4 °F /  8 °C 44.2 °F /  6.8 °C 30.03 in /  1016.8 hPa SW 1.6 mph /  2.6 km/h 4.6 mph /  7.4 km/h 92 % 0.00 in /  0 mm
09:35 46.8 °F /  8.2 °C 44.0 °F /  6.7 °C 30.03 in /  1016.8 hPa WNW 1.1 mph /  1.8 km/h 2.3 mph /  3.7 km/h 90 % 0.00 in /  0 mm
09:40 47.0 °F /  8.3 °C 43.3 °F /  6.3 °C 30.03 in /  1016.8 hPa Calm     87 % 0.00 in /  0 mm
09:45 47.0 °F /  8.3 °C 42.4 °F /  5.8 °C 30.02 in /  1016.5 hPa WNW 0.2 mph /  0.3 km/h 1.2 mph /  1.9 km/h 84 % 0.00 in /  0 mm
09:50 47.1 °F /  8.4 °C 42.2 °F /  5.7 °C 30.02 in /  1016.5 hPa WNW 0.5 mph /  0.8 km/h 2.3 mph /  3.7 km/h 83 % 0.00 in /  0 mm
09:55 47.2 °F /  8.4 °C 41.7 °F /  5.4 °C 30.02 in /  1016.5 hPa Calm     81 % 0.00 in /  0 mm
10:00 47.4 °F /  8.6 °C 42.8 °F /  6 °C 30.02 in /  1016.5 hPa SW 4.3 mph /  6.9 km/h 8.1 mph /  13 km/h 84 % 0.00 in /  0 mm
10:05 47.6 °F /  8.7 °C 43.3 °F /  6.3 °C 30.02 in /  1016.5 hPa WSW 3.3 mph /  5.3 km/h 5.8 mph /  9.3 km/h 85 % 0.00 in /  0 mm
10:10 47.8 °F /  8.8 °C 42.9 °F /  6.1 °C 30.02 in /  1016.5 hPa West 0.2 mph /  0.3 km/h 3.0 mph /  4.8 km/h 83 % 0.00 in /  0 mm
10:15 47.9 °F /  8.8 °C 43.0 °F /  6.1 °C 30.03 in /  1016.8 hPa WSW 1.5 mph /  2.4 km/h 3.5 mph /  5.6 km/h 83 % 0.00 in /  0 mm
10:20 47.9 °F /  8.8 °C 42.3 °F /  5.7 °C 30.02 in /  1016.5 hPa WNW 2.8 mph /  4.5 km/h 4.0 mph /  6.4 km/h 81 % 0.00 in /  0 mm
10:26 47.2 °F /  8.4 °C 40.0 °F /  4.4 °C 30.02 in /  1016.5 hPa NW 2.0 mph /  3.2 km/h 5.0 mph /  8 km/h 76 % 0.00 in /  0 mm
10:31 46.6 °F /  8.1 °C 39.4 °F /  4.1 °C 30.02 in /  1016.5 hPa Calm   4.0 mph /  6.4 km/h 76 % 0.00 in /  0 mm
10:36 46.1 °F /  7.8 °C 39.6 °F /  4.2 °C 30.02 in /  1016.5 hPa NW 2.3 mph /  3.7 km/h 3.5 mph /  5.6 km/h 78 % 0.00 in /  0 mm
10:41 46.0 °F /  7.8 °C 40.2 °F /  4.6 °C 30.02 in /  1016.5 hPa NW 1.0 mph /  1.6 km/h 2.0 mph /  3.2 km/h 80 % 0.00 in /  0 mm
10:46 45.9 °F /  7.7 °C 40.1 °F /  4.5 °C 30.02 in /  1016.5 hPa NNW 3.0 mph /  4.8 km/h 6.0 mph /  9.7 km/h 80 % 0.00 in /  0 mm
10:51 45.8 °F /  7.7 °C 39.7 °F /  4.3 °C 30.02 in /  1016.5 hPa Calm   3.0 mph /  4.8 km/h 79 % 0.00 in /  0 mm
10:56 45.4 °F /  7.4 °C 39.6 °F /  4.2 °C 30.02 in /  1016.5 hPa North 0.1 mph /  0.2 km/h 1.2 mph /  1.9 km/h 80 % 0.00 in /  0 mm
11:01 45.1 °F /  7.3 °C 39.6 °F /  4.2 °C 30.02 in /  1016.5 hPa Calm     81 % 0.00 in /  0 mm
11:06 44.8 °F /  7.1 °C 39.6 °F /  4.2 °C 30.02 in /  1016.5 hPa Calm   2.0 mph /  3.2 km/h 82 % 0.00 in /  0 mm
11:11 44.4 °F /  6.9 °C 39.2 °F /  4 °C 30.02 in /  1016.5 hPa North 1.0 mph /  1.6 km/h 2.0 mph /  3.2 km/h 82 % 0.00 in /  0 mm
11:16 44.1 °F /  6.7 °C 39.0 °F /  3.9 °C 30.01 in /  1016.1 hPa North 0.2 mph /  0.3 km/h 1.2 mph /  1.9 km/h 82 % 0.00 in /  0 mm
11:21 43.7 °F /  6.5 °C 38.9 °F /  3.8 °C 30.01 in /  1016.1 hPa Calm   2.0 mph /  3.2 km/h 83 % 0.00 in /  0 mm
11:26 43.6 °F /  6.4 °C 39.1 °F /  3.9 °C 30.01 in /  1016.1 hPa Calm   2.0 mph /  3.2 km/h 84 % 0.00 in /  0 mm
11:31 43.6 °F /  6.4 °C 39.0 °F /  3.9 °C 30.01 in /  1016.1 hPa Calm   1.0 mph /  1.6 km/h 84 % 0.00 in /  0 mm
11:36 43.5 °F /  6.4 °C 39.3 °F /  4.1 °C 30.01 in /  1016.1 hPa North 0.2 mph /  0.3 km/h 2.3 mph /  3.7 km/h 85 % 0.00 in /  0 mm
11:41 43.4 °F /  6.3 °C 39.2 °F /  4 °C 30.01 in /  1016.1 hPa Calm   1.0 mph /  1.6 km/h 85 % 0.00 in /  0 mm
11:46 43.4 °F /  6.3 °C 39.2 °F /  4 °C 30.00 in /  1015.8 hPa Calm   1.0 mph /  1.6 km/h 85 % 0.00 in /  0 mm
11:51 43.3 °F /  6.3 °C 39.4 °F /  4.1 °C 29.99 in /  1015.5 hPa Calm   2.0 mph /  3.2 km/h 86 % 0.00 in /  0 mm
11:56 43.3 °F /  6.3 °C 39.4 °F /  4.1 °C 29.99 in /  1015.5 hPa Calm   3.0 mph /  4.8 km/h 86 % 0.00 in /  0 mm
12:01 43.3 °F /  6.3 °C 39.4 °F /  4.1 °C 29.99 in /  1015.5 hPa North 0.4 mph /  0.6 km/h 1.2 mph /  1.9 km/h 86 % 0.00 in /  0 mm
12:06 43.4 °F /  6.3 °C 39.8 °F /  4.3 °C 29.98 in /  1015.1 hPa North 0.4 mph /  0.6 km/h 4.0 mph /  6.4 km/h 87 % 0.00 in /  0 mm
12:11 43.6 °F /  6.4 °C 40.0 °F /  4.4 °C 29.98 in /  1015.1 hPa ENE 1.7 mph /  2.7 km/h 3.5 mph /  5.6 km/h 87 % 0.00 in /  0 mm
12:16 43.7 °F /  6.5 °C 40.1 °F /  4.5 °C 29.98 in /  1015.1 hPa NNE 2.2 mph /  3.5 km/h 4.0 mph /  6.4 km/h 87 % 0.00 in /  0 mm
12:21 43.8 °F /  6.6 °C 40.2 °F /  4.6 °C 29.97 in /  1014.8 hPa NNE 3.4 mph /  5.5 km/h 4.6 mph /  7.4 km/h 87 % 0.00 in /  0 mm
12:26 43.9 °F /  6.6 °C 40.3 °F /  4.6 °C 29.97 in /  1014.8 hPa NE 1.4 mph /  2.3 km/h 3.5 mph /  5.6 km/h 87 % 0.00 in /  0 mm
12:31 44.1 °F /  6.7 °C 40.5 °F /  4.7 °C 29.97 in /  1014.8 hPa NE 1.3 mph /  2.1 km/h 2.3 mph /  3.7 km/h 87 % 0.00 in /  0 mm
12:36 44.1 °F /  6.7 °C 40.5 °F /  4.7 °C 29.97 in /  1014.8 hPa ENE 1.7 mph /  2.7 km/h 2.3 mph /  3.7 km/h 87 % 0.00 in /  0 mm
12:41 44.2 °F /  6.8 °C 40.6 °F /  4.8 °C 29.96 in /  1014.4 hPa ENE 2.3 mph /  3.7 km/h 3.5 mph /  5.6 km/h 87 % 0.00 in /  0 mm
12:46 44.3 °F /  6.8 °C 40.7 °F /  4.8 °C 29.96 in /  1014.4 hPa ENE 0.3 mph /  0.5 km/h 2.3 mph /  3.7 km/h 87 % 0.00 in /  0 mm
12:51 44.5 °F /  6.9 °C 40.9 °F /  4.9 °C 29.96 in /  1014.4 hPa ENE 0.5 mph /  0.8 km/h 1.2 mph /  1.9 km/h 87 % 0.00 in /  0 mm
12:56 44.7 °F /  7.1 °C 41.1 °F /  5.1 °C 29.95 in /  1014.1 hPa ENE 0.5 mph /  0.8 km/h 1.2 mph /  1.9 km/h 87 % 0.00 in /  0 mm
13:01 44.8 °F /  7.1 °C 41.2 °F /  5.1 °C 29.94 in /  1013.8 hPa ENE 1.3 mph /  2.1 km/h 3.0 mph /  4.8 km/h 87 % 0.00 in /  0 mm
13:06 45.0 °F /  7.2 °C 41.4 °F /  5.2 °C 29.94 in /  1013.8 hPa ENE 2.4 mph /  3.9 km/h 4.0 mph /  6.4 km/h 87 % 0.00 in /  0 mm
13:12 45.1 °F /  7.3 °C 41.5 °F /  5.3 °C 29.94 in /  1013.8 hPa ENE 2.7 mph /  4.3 km/h 3.5 mph /  5.6 km/h 87 % 0.00 in /  0 mm
13:17 45.0 °F /  7.2 °C 41.1 °F /  5.1 °C 29.94 in /  1013.8 hPa ENE 1.6 mph /  2.6 km/h 4.6 mph /  7.4 km/h 86 % 0.00 in /  0 mm
13:22 44.6 °F /  7 °C 40.7 °F /  4.8 °C 29.93 in /  1013.4 hPa NE 3.7 mph /  6 km/h 6.9 mph /  11.1 km/h 86 % 0.00 in /  0 mm
13:27 44.3 °F /  6.8 °C 40.4 °F /  4.7 °C 29.93 in /  1013.4 hPa ENE 2.7 mph /  4.3 km/h 3.5 mph /  5.6 km/h 86 % 0.00 in /  0 mm
13:32 44.1 °F /  6.7 °C 40.2 °F /  4.6 °C 29.93 in /  1013.4 hPa ENE 3.5 mph /  5.6 km/h 3.5 mph /  5.6 km/h 86 % 0.00 in /  0 mm
13:37 44.0 °F /  6.7 °C 40.4 °F /  4.7 °C 29.93 in /  1013.4 hPa ENE 1.3 mph /  2.1 km/h 3.5 mph /  5.6 km/h 87 % 0.00 in /  0 mm
13:42 43.8 °F /  6.6 °C 40.5 °F /  4.7 °C 29.93 in /  1013.4 hPa ENE 1.8 mph /  2.9 km/h 3.5 mph /  5.6 km/h 88 % 0.00 in /  0 mm
13:47 43.7 °F /  6.5 °C 40.1 °F /  4.5 °C 29.92 in /  1013.1 hPa ENE 1.7 mph /  2.7 km/h 2.3 mph /  3.7 km/h 87 % 0.00 in /  0 mm
13:52 43.4 °F /  6.3 °C 40.1 °F /  4.5 °C 29.92 in /  1013.1 hPa NE 1.5 mph /  2.4 km/h 3.5 mph /  5.6 km/h 88 % 0.00 in /  0 mm
13:57 43.3 °F /  6.3 °C 40.0 °F /  4.4 °C 29.92 in /  1013.1 hPa ENE 1.3 mph /  2.1 km/h 3.5 mph /  5.6 km/h 88 % 0.00 in /  0 mm
14:02 43.1 °F /  6.2 °C 39.8 °F /  4.3 °C 29.91 in /  1012.8 hPa NE 0.9 mph /  1.4 km/h 2.0 mph /  3.2 km/h 88 % 0.00 in /  0 mm
14:07 43.1 °F /  6.2 °C 40.1 °F /  4.5 °C 29.91 in /  1012.8 hPa NNE 1.6 mph /  2.6 km/h 2.3 mph /  3.7 km/h 89 % 0.00 in /  0 mm
14:12 43.1 °F /  6.2 °C 39.8 °F /  4.3 °C 29.91 in /  1012.8 hPa NNE 1.0 mph /  1.6 km/h 3.5 mph /  5.6 km/h 88 % 0.00 in /  0 mm
14:17 43.0 °F /  6.1 °C 39.7 °F /  4.3 °C 29.91 in /  1012.8 hPa Calm   3.5 mph /  5.6 km/h 88 % 0.00 in /  0 mm
14:22 42.9 °F /  6.1 °C 39.6 °F /  4.2 °C 29.91 in /  1012.8 hPa NNE 0.5 mph /  0.8 km/h 1.2 mph /  1.9 km/h 88 % 0.00 in /  0 mm
14:27 42.8 °F /  6 °C 39.5 °F /  4.2 °C 29.90 in /  1012.4 hPa NNE 0.8 mph /  1.3 km/h 3.0 mph /  4.8 km/h 88 % 0.00 in /  0 mm
14:33 42.8 °F /  6 °C 39.5 °F /  4.2 °C 29.90 in /  1012.4 hPa Calm     88 % 0.00 in /  0 mm
14:38 42.7 °F /  5.9 °C 39.4 °F /  4.1 °C 29.90 in /  1012.4 hPa NNE 1.9 mph /  3.1 km/h 2.0 mph /  3.2 km/h 88 % 0.00 in /  0 mm
14:43 42.7 °F /  5.9 °C 39.4 °F /  4.1 °C 29.90 in /  1012.4 hPa Calm   2.3 mph /  3.7 km/h 88 % 0.00 in /  0 mm
14:48 42.6 °F /  5.9 °C 39.6 °F /  4.2 °C 29.90 in /  1012.4 hPa NNE 0.5 mph /  0.8 km/h 3.5 mph /  5.6 km/h 89 % 0.00 in /  0 mm
14:53 42.6 °F /  5.9 °C 39.6 °F /  4.2 °C 29.90 in /  1012.4 hPa Calm     89 % 0.00 in /  0 mm
14:58 42.5 °F /  5.8 °C 39.8 °F /  4.3 °C 29.90 in /  1012.4 hPa NNE 0.3 mph /  0.5 km/h 1.2 mph /  1.9 km/h 90 % 0.00 in /  0 mm
15:03 42.5 °F /  5.8 °C 39.8 °F /  4.3 °C 29.90 in /  1012.4 hPa Calm     90 % 0.00 in /  0 mm
15:08 42.5 °F /  5.8 °C 39.8 °F /  4.3 °C 29.90 in /  1012.4 hPa Calm     90 % 0.00 in /  0 mm
15:13 42.5 °F /  5.8 °C 40.1 °F /  4.5 °C 29.90 in /  1012.4 hPa Calm     91 % 0.00 in /  0 mm
15:18 42.5 °F /  5.8 °C 40.1 °F /  4.5 °C 29.90 in /  1012.4 hPa Calm     91 % 0.00 in /  0 mm
15:23 42.6 °F /  5.9 °C 40.2 °F /  4.6 °C 29.90 in /  1012.4 hPa Calm     91 % 0.00 in /  0 mm
15:28 42.6 °F /  5.9 °C 40.2 °F /  4.6 °C 29.90 in /  1012.4 hPa Calm     91 % 0.00 in /  0 mm
15:33 42.7 °F /  5.9 °C 40.3 °F /  4.6 °C 29.90 in /  1012.4 hPa Calm     91 % 0.00 in /  0 mm
15:38 42.6 °F /  5.9 °C 40.4 °F /  4.7 °C 29.90 in /  1012.4 hPa NNE 0.9 mph /  1.4 km/h 2.3 mph /  3.7 km/h 92 % 0.00 in /  0 mm
15:43 42.6 °F /  5.9 °C 40.4 °F /  4.7 °C 29.90 in /  1012.4 hPa Calm     92 % 0.00 in /  0 mm
15:48 42.7 °F /  5.9 °C 40.5 °F /  4.7 °C 29.90 in /  1012.4 hPa Calm     92 % 0.00 in /  0 mm
15:53 42.7 °F /  5.9 °C 40.5 °F /  4.7 °C 29.90 in /  1012.4 hPa Calm     92 % 0.00 in /  0 mm
15:59 42.7 °F /  5.9 °C 40.5 °F /  4.7 °C 29.90 in /  1012.4 hPa Calm   1.2 mph /  1.9 km/h 92 % 0.00 in /  0 mm
16:04 42.7 °F /  5.9 °C 40.5 °F /  4.7 °C 29.91 in /  1012.8 hPa NW 2.8 mph /  4.5 km/h 3.5 mph /  5.6 km/h 92 % 0.00 in /  0 mm
16:09 42.5 °F /  5.8 °C 40.3 °F /  4.6 °C 29.91 in /  1012.8 hPa WNW 1.6 mph /  2.6 km/h 5.8 mph /  9.3 km/h 92 % 0.00 in /  0 mm
16:14 42.2 °F /  5.7 °C 39.8 °F /  4.3 °C 29.90 in /  1012.4 hPa NW 0.6 mph /  1 km/h 3.5 mph /  5.6 km/h 91 % 0.00 in /  0 mm
16:19 41.8 °F /  5.4 °C 39.1 °F /  3.9 °C 29.90 in /  1012.4 hPa Calm   1.2 mph /  1.9 km/h 90 % 0.00 in /  0 mm
16:24 41.5 °F /  5.3 °C 38.8 °F /  3.8 °C 29.90 in /  1012.4 hPa Calm     90 % 0.00 in /  0 mm
16:30 41.2 °F /  5.1 °C 38.5 °F /  3.6 °C 29.90 in /  1012.4 hPa Calm     90 % 0.00 in /  0 mm
16:35 41.0 °F /  5 °C 38.3 °F /  3.5 °C 29.90 in /  1012.4 hPa Calm     90 % 0.00 in /  0 mm
16:40 40.9 °F /  4.9 °C 38.5 °F /  3.6 °C 29.90 in /  1012.4 hPa Calm     91 % 0.00 in /  0 mm
16:45 40.7 °F /  4.8 °C 38.3 °F /  3.5 °C 29.90 in /  1012.4 hPa Calm     91 % 0.00 in /  0 mm
16:50 40.7 °F /  4.8 °C 38.3 °F /  3.5 °C 29.90 in /  1012.4 hPa Calm     91 % 0.00 in /  0 mm
16:55 40.6 °F /  4.8 °C 38.5 °F /  3.6 °C 29.90 in /  1012.4 hPa Calm     92 % 0.00 in /  0 mm
17:00 40.5 °F /  4.7 °C 38.4 °F /  3.6 °C 29.90 in /  1012.4 hPa Calm     92 % 0.00 in /  0 mm
17:05 40.5 °F /  4.7 °C 38.4 °F /  3.6 °C 29.89 in /  1012.1 hPa Calm     92 % 0.00 in /  0 mm
17:10 40.4 °F /  4.7 °C 38.3 °F /  3.5 °C 29.90 in /  1012.4 hPa Calm     92 % 0.00 in /  0 mm
17:15 40.4 °F /  4.7 °C 38.3 °F /  3.5 °C 29.89 in /  1012.1 hPa Calm     92 % 0.00 in /  0 mm
17:20 40.5 °F /  4.7 °C 38.4 °F /  3.6 °C 29.89 in /  1012.1 hPa Calm     92 % 0.00 in /  0 mm
17:25 40.6 °F /  4.8 °C 38.5 °F /  3.6 °C 29.89 in /  1012.1 hPa Calm     92 % 0.00 in /  0 mm
17:30 40.6 °F /  4.8 °C 38.7 °F /  3.7 °C 29.89 in /  1012.1 hPa Calm     93 % 0.00 in /  0 mm
17:35 40.7 °F /  4.8 °C 38.8 °F /  3.8 °C 29.89 in /  1012.1 hPa Calm     93 % 0.00 in /  0 mm
17:40 40.7 °F /  4.8 °C 38.8 °F /  3.8 °C 29.89 in /  1012.1 hPa Calm     93 % 0.00 in /  0 mm
17:45 40.9 °F /  4.9 °C 39.0 °F /  3.9 °C 29.88 in /  1011.7 hPa Calm     93 % 0.00 in /  0 mm
17:50 41.0 °F /  5 °C 39.4 °F /  4.1 °C 29.88 in /  1011.7 hPa Calm     94 % 0.00 in /  0 mm
17:56 41.2 °F /  5.1 °C 39.6 °F /  4.2 °C 29.88 in /  1011.7 hPa Calm     94 % 0.00 in /  0 mm
18:01 41.3 °F /  5.2 °C 39.7 °F /  4.3 °C 29.88 in /  1011.7 hPa Calm     94 % 0.00 in /  0 mm
18:06 41.3 °F /  5.2 °C 39.7 °F /  4.3 °C 29.88 in /  1011.7 hPa Calm     94 % 0.00 in /  0 mm
18:11 41.4 °F /  5.2 °C 39.8 °F /  4.3 °C 29.88 in /  1011.7 hPa Calm     94 % 0.00 in /  0 mm
18:16 41.3 °F /  5.2 °C 39.7 °F /  4.3 °C 29.88 in /  1011.7 hPa Calm   1.0 mph /  1.6 km/h 94 % 0.00 in /  0 mm
18:21 41.2 °F /  5.1 °C 39.6 °F /  4.2 °C 29.87 in /  1011.4 hPa Calm     94 % 0.00 in /  0 mm
18:26 41.1 °F /  5.1 °C 39.5 °F /  4.2 °C 29.86 in /  1011.1 hPa Calm     94 % 0.00 in /  0 mm
18:31 41.0 °F /  5 °C 39.4 °F /  4.1 °C 29.87 in /  1011.4 hPa Calm     94 % 0.00 in /  0 mm
18:36 40.9 °F /  4.9 °C 39.3 °F /  4.1 °C 29.86 in /  1011.1 hPa Calm     94 % 0.00 in /  0 mm
18:41 40.8 °F /  4.9 °C 39.2 °F /  4 °C 29.86 in /  1011.1 hPa Calm     94 % 0.00 in /  0 mm
18:46 40.7 °F /  4.8 °C 38.8 °F /  3.8 °C 29.86 in /  1011.1 hPa Calm     93 % 0.00 in /  0 mm
18:51 40.6 °F /  4.8 °C 38.7 °F /  3.7 °C 29.86 in /  1011.1 hPa Calm     93 % 0.00 in /  0 mm
18:56 40.5 °F /  4.7 °C 38.7 °F /  3.7 °C 29.86 in /  1011.1 hPa Calm     93 % 0.00 in /  0 mm
19:01 40.4 °F /  4.7 °C 38.8 °F /  3.8 °C 29.85 in /  1010.7 hPa Calm     94 % 0.00 in /  0 mm
19:06 40.4 °F /  4.7 °C 38.8 °F /  3.8 °C 29.85 in /  1010.7 hPa Calm     94 % 0.00 in /  0 mm
19:11 40.3 °F /  4.6 °C 38.7 °F /  3.7 °C 29.85 in /  1010.7 hPa Calm     94 % 0.00 in /  0 mm
19:16 40.2 °F /  4.6 °C 38.6 °F /  3.7 °C 29.84 in /  1010.4 hPa Calm     94 % 0.00 in /  0 mm
19:21 40.2 °F /  4.6 °C 38.3 °F /  3.5 °C 29.84 in /  1010.4 hPa Calm     93 % 0.00 in /  0 mm
19:26 40.1 °F /  4.5 °C 38.2 °F /  3.4 °C 29.84 in /  1010.4 hPa Calm     93 % 0.00 in /  0 mm
19:31 40.1 °F /  4.5 °C 38.2 °F /  3.4 °C 29.84 in /  1010.4 hPa Calm     93 % 0.00 in /  0 mm
19:36 40.0 °F /  4.4 °C 38.1 °F /  3.4 °C 29.84 in /  1010.4 hPa Calm     93 % 0.00 in /  0 mm
19:41 40.0 °F /  4.4 °C 38.1 °F /  3.4 °C 29.83 in /  1010 hPa Calm     93 % 0.00 in /  0 mm
19:46 40.0 °F /  4.4 °C 38.4 °F /  3.6 °C 29.82 in /  1009.7 hPa Calm     94 % 0.00 in /  0 mm
19:51 40.0 °F /  4.4 °C 38.4 °F /  3.6 °C 29.82 in /  1009.7 hPa Calm     94 % 0.00 in /  0 mm
19:56 40.0 °F /  4.4 °C 38.5 °F /  3.6 °C 29.81 in /  1009.4 hPa Calm   2.0 mph /  3.2 km/h 94 % 0.00 in /  0 mm
20:01 40.2 °F /  4.6 °C 38.6 °F /  3.7 °C 29.81 in /  1009.4 hPa Calm     94 % 0.00 in /  0 mm
20:06 40.5 °F /  4.7 °C 39.2 °F /  4 °C 29.81 in /  1009.4 hPa Calm     95 % 0.00 in /  0 mm
20:11 40.8 °F /  4.9 °C 39.5 °F /  4.2 °C 29.81 in /  1009.4 hPa Calm   1.2 mph /  1.9 km/h 95 % 0.00 in /  0 mm
20:16 41.2 °F /  5.1 °C 40.1 °F /  4.5 °C 29.81 in /  1009.4 hPa South 1.5 mph /  2.4 km/h 3.5 mph /  5.6 km/h 96 % 0.00 in /  0 mm
20:21 41.7 °F /  5.4 °C 40.6 °F /  4.8 °C 29.81 in /  1009.4 hPa South 0.5 mph /  0.8 km/h 2.3 mph /  3.7 km/h 96 % 0.00 in /  0 mm
20:26 42.3 °F /  5.7 °C 41.2 °F /  5.1 °C 29.80 in /  1009 hPa Calm     96 % 0.00 in /  0 mm
20:31 43.2 °F /  6.2 °C 42.4 °F /  5.8 °C 29.79 in /  1008.7 hPa SSE 0.5 mph /  0.8 km/h 4.6 mph /  7.4 km/h 97 % 0.00 in /  0 mm
20:36 43.6 °F /  6.4 °C 42.8 °F /  6 °C 29.79 in /  1008.7 hPa Calm     97 % 0.00 in /  0 mm
20:41 44.2 °F /  6.8 °C 43.4 °F /  6.3 °C 29.79 in /  1008.7 hPa Calm   1.2 mph /  1.9 km/h 97 % 0.00 in /  0 mm
20:46 44.6 °F /  7 °C 43.8 °F /  6.6 °C 29.79 in /  1008.7 hPa SSE 0.2 mph /  0.3 km/h 2.3 mph /  3.7 km/h 97 % 0.00 in /  0 mm
20:51 45.0 °F /  7.2 °C 44.2 °F /  6.8 °C 29.79 in /  1008.7 hPa Calm   3.5 mph /  5.6 km/h 97 % 0.00 in /  0 mm
20:56 45.4 °F /  7.4 °C 44.6 °F /  7 °C 29.79 in /  1008.7 hPa SSW 0.9 mph /  1.4 km/h 5.8 mph /  9.3 km/h 97 % 0.00 in /  0 mm
21:01 45.7 °F /  7.6 °C 44.9 °F /  7.2 °C 29.79 in /  1008.7 hPa WSW 0.6 mph /  1 km/h 2.3 mph /  3.7 km/h 97 % 0.00 in /  0 mm
21:06 46.1 °F /  7.8 °C 45.3 °F /  7.4 °C 29.79 in /  1008.7 hPa WNW 0.3 mph /  0.5 km/h 3.5 mph /  5.6 km/h 97 % 0.00 in /  0 mm
21:12 46.3 °F /  7.9 °C 45.5 °F /  7.5 °C 29.79 in /  1008.7 hPa WNW 1.9 mph /  3.1 km/h 2.3 mph /  3.7 km/h 97 % 0.00 in /  0 mm
21:17 46.0 °F /  7.8 °C 45.2 °F /  7.3 °C 29.79 in /  1008.7 hPa WNW 2.4 mph /  3.9 km/h 4.0 mph /  6.4 km/h 97 % 0.00 in /  0 mm
21:22 45.5 °F /  7.5 °C 44.4 °F /  6.9 °C 29.78 in /  1008.4 hPa NW 2.3 mph /  3.7 km/h 3.5 mph /  5.6 km/h 96 % 0.00 in /  0 mm
21:27 45.0 °F /  7.2 °C 43.9 °F /  6.6 °C 29.79 in /  1008.7 hPa WNW 2.8 mph /  4.5 km/h 4.0 mph /  6.4 km/h 96 % 0.00 in /  0 mm
21:32 44.6 °F /  7 °C 43.5 °F /  6.4 °C 29.80 in /  1009 hPa WNW 4.4 mph /  7.1 km/h 9.2 mph /  14.8 km/h 96 % 0.02 in /  0.51 mm
21:37 44.1 °F /  6.7 °C 43.0 °F /  6.1 °C 29.80 in /  1009 hPa West 3.4 mph /  5.5 km/h 5.8 mph /  9.3 km/h 96 % 0.03 in /  0.76 mm
21:42 43.7 °F /  6.5 °C 42.6 °F /  5.9 °C 29.80 in /  1009 hPa WNW 2.4 mph /  3.9 km/h 5.8 mph /  9.3 km/h 96 % 0.04 in /  1.02 mm
21:47 43.3 °F /  6.3 °C 42.2 °F /  5.7 °C 29.80 in /  1009 hPa WNW 4.0 mph /  6.4 km/h 5.8 mph /  9.3 km/h 96 % 0.07 in /  1.78 mm
21:52 42.9 °F /  6.1 °C 41.6 °F /  5.3 °C 29.80 in /  1009 hPa West 2.0 mph /  3.2 km/h 3.5 mph /  5.6 km/h 95 % 0.08 in /  2.03 mm
21:57 42.6 °F /  5.9 °C 41.3 °F /  5.2 °C 29.80 in /  1009 hPa West 2.0 mph /  3.2 km/h 3.5 mph /  5.6 km/h 95 % 0.09 in /  2.29 mm
22:02 42.3 °F /  5.7 °C 41.0 °F /  5 °C 29.80 in /  1009 hPa West 0.9 mph /  1.4 km/h 2.3 mph /  3.7 km/h 95 % 0.09 in /  2.29 mm
22:07 42.2 °F /  5.7 °C 40.9 °F /  4.9 °C 29.80 in /  1009 hPa Calm     95 % 0.10 in /  2.54 mm
22:12 42.1 °F /  5.6 °C 40.8 °F /  4.9 °C 29.80 in /  1009 hPa Calm     95 % 0.11 in /  2.79 mm
22:17 42.0 °F /  5.6 °C 40.7 °F /  4.8 °C 29.79 in /  1008.7 hPa Calm     95 % 0.11 in /  2.79 mm
22:22 41.9 °F /  5.5 °C 40.8 °F /  4.9 °C 29.79 in /  1008.7 hPa Calm     96 % 0.11 in /  2.79 mm
22:27 41.9 °F /  5.5 °C 40.8 °F /  4.9 °C 29.79 in /  1008.7 hPa Calm     96 % 0.12 in /  3.05 mm
22:32 41.9 °F /  5.5 °C 40.8 °F /  4.9 °C 29.77 in /  1008 hPa Calm     96 % 0.10 in /  2.54 mm
22:37 42.0 °F /  5.6 °C 40.9 °F /  4.9 °C 29.77 in /  1008 hPa Calm     96 % 0.09 in /  2.29 mm
22:43 42.0 °F /  5.6 °C 40.9 °F /  4.9 °C 29.77 in /  1008 hPa Calm     96 % 0.08 in /  2.03 mm
22:48 42.0 °F /  5.6 °C 40.9 °F /  4.9 °C 29.77 in /  1008 hPa Calm     96 % 0.05 in /  1.27 mm
22:53 42.1 °F /  5.6 °C 41.0 °F /  5 °C 29.77 in /  1008 hPa Calm     96 % 0.04 in /  1.02 mm
22:58 42.2 °F /  5.7 °C 41.1 °F /  5.1 °C 29.77 in /  1008 hPa Calm     96 % 0.03 in /  0.76 mm
23:03 42.4 °F /  5.8 °C 41.3 °F /  5.2 °C 29.76 in /  1007.7 hPa Calm   1.2 mph /  1.9 km/h 96 % 0.03 in /  0.76 mm
23:08 42.6 °F /  5.9 °C 41.5 °F /  5.3 °C 29.77 in /  1008 hPa Calm     96 % 0.02 in /  0.51 mm
23:13 42.8 °F /  6 °C 42.0 °F /  5.6 °C 29.76 in /  1007.7 hPa Calm     97 % 0.01 in /  0.25 mm
23:18 43.0 °F /  6.1 °C 42.2 °F /  5.7 °C 29.77 in /  1008 hPa Calm     97 % 0.01 in /  0.25 mm
23:23 43.2 °F /  6.2 °C 42.4 °F /  5.8 °C 29.77 in /  1008 hPa Calm     97 % 0.01 in /  0.25 mm
23:28 43.5 °F /  6.4 °C 42.7 °F /  5.9 °C 29.77 in /  1008 hPa Calm     97 % 0.01 in /  0.25 mm
23:33 43.8 °F /  6.6 °C 43.0 °F /  6.1 °C 29.77 in /  1008 hPa West 1.2 mph /  1.9 km/h 2.3 mph /  3.7 km/h 97 % 0.01 in /  0.25 mm
23:38 44.0 °F /  6.7 °C 43.2 °F /  6.2 °C 29.77 in /  1008 hPa West 0.1 mph /  0.2 km/h 1.0 mph /  1.6 km/h 97 % 0.01 in /  0.25 mm
23:43 44.1 °F /  6.7 °C 43.3 °F /  6.3 °C 29.78 in /  1008.4 hPa West 0.4 mph /  0.6 km/h 1.2 mph /  1.9 km/h 97 % 0.01 in /  0.25 mm
23:48 44.1 °F /  6.7 °C 43.3 °F /  6.3 °C 29.78 in /  1008.4 hPa Calm     97 % 0.01 in /  0.25 mm
23:53 44.1 °F /  6.7 °C 43.3 °F /  6.3 °C 29.78 in /  1008.4 hPa Calm     97 % 0.01 in /  0.25 mm
23:58 44.0 °F /  6.7 °C 43.2 °F /  6.2 °C 29.79 in /  1008.7 hPa Calm     97 % 0.01 in /  0.25 mm
Crab Meadow Weather
Compliments of Weather Underground - 3 mb

Script developed by  Jim McMurry - jmcmurry@mwt.net Adapted for the template by  Wim van der Kuil - Leuven-Template.eu

Weather Terms: Enhanced Fujita Scale or EF-Scale - A scale of wind damage intensity in which wind speeds are inferred from analysis of wind damage. All tornadoes and most other windstorms are assigned a numerical rating from this scale according to the most intense damage caused by the storm. EF0 (weak) 6585 mph, light damage EF1 (weak) 86110 mph, moderate damage EF2 (strong) 111135 mph, considerable damage EF3 (strong) 136165 mph, severe damage EF4 (violent) 166200 mph, devastating damage EF5 (violent) >200 mph, incredible damage.